sensor_id;sensor_type;location;lat;lon;timestamp;P1;durP1;ratioP1;P2;durP2;ratioP2
34805;SDS011;65084;42.196;25.326;2024-01-15T00:00:00;98.38;;;41.78;;
34805;SDS011;65084;42.196;25.326;2024-01-15T00:02:30;94.35;;;40.80;;
34805;SDS011;65084;42.196;25.326;2024-01-15T00:04:57;97.63;;;41.55;;
34805;SDS011;65084;42.196;25.326;2024-01-15T00:07:24;104.47;;;43.70;;
34805;SDS011;65084;42.196;25.326;2024-01-15T00:09:51;99.18;;;43.63;;
34805;SDS011;65084;42.196;25.326;2024-01-15T00:12:19;119.53;;;50.83;;
34805;SDS011;65084;42.196;25.326;2024-01-15T00:14:46;112.03;;;47.00;;
34805;SDS011;65084;42.196;25.326;2024-01-15T00:17:13;113.35;;;47.88;;
34805;SDS011;65084;42.196;25.326;2024-01-15T00:19:42;125.72;;;52.83;;
34805;SDS011;65084;42.196;25.326;2024-01-15T00:22:09;121.00;;;50.10;;
34805;SDS011;65084;42.196;25.326;2024-01-15T00:24:36;123.30;;;50.65;;
34805;SDS011;65084;42.196;25.326;2024-01-15T00:27:04;125.88;;;51.30;;
34805;SDS011;65084;42.196;25.326;2024-01-15T00:29:31;117.55;;;48.53;;
34805;SDS011;65084;42.196;25.326;2024-01-15T00:31:59;133.73;;;51.72;;
34805;SDS011;65084;42.196;25.326;2024-01-15T00:34:26;127.22;;;51.25;;
34805;SDS011;65084;42.196;25.326;2024-01-15T00:36:55;118.72;;;50.03;;
34805;SDS011;65084;42.196;25.326;2024-01-15T00:39:22;121.88;;;50.03;;
34805;SDS011;65084;42.196;25.326;2024-01-15T00:41:49;111.45;;;45.70;;
34805;SDS011;65084;42.196;25.326;2024-01-15T00:44:16;128.13;;;49.40;;
34805;SDS011;65084;42.196;25.326;2024-01-15T00:46:44;113.90;;;46.13;;
34805;SDS011;65084;42.196;25.326;2024-01-15T00:49:11;111.03;;;47.20;;
34805;SDS011;65084;42.196;25.326;2024-01-15T00:51:39;116.78;;;45.80;;
34805;SDS011;65084;42.196;25.326;2024-01-15T00:54:07;115.22;;;44.40;;
34805;SDS011;65084;42.196;25.326;2024-01-15T00:56:35;95.68;;;41.67;;
34805;SDS011;65084;42.196;25.326;2024-01-15T00:59:02;96.75;;;40.03;;
34805;SDS011;65084;42.196;25.326;2024-01-15T01:01:29;94.57;;;40.17;;
34805;SDS011;65084;42.196;25.326;2024-01-15T01:03:57;90.55;;;38.83;;
34805;SDS011;65084;42.196;25.326;2024-01-15T01:06:24;90.60;;;36.28;;
34805;SDS011;65084;42.196;25.326;2024-01-15T01:08:51;82.90;;;35.72;;
34805;SDS011;65084;42.196;25.326;2024-01-15T01:11:20;91.07;;;37.50;;
34805;SDS011;65084;42.196;25.326;2024-01-15T01:13:47;88.20;;;36.55;;
34805;SDS011;65084;42.196;25.326;2024-01-15T01:16:15;83.45;;;34.70;;
34805;SDS011;65084;42.196;25.326;2024-01-15T01:18:42;84.38;;;34.28;;
34805;SDS011;65084;42.196;25.326;2024-01-15T01:21:09;106.15;;;40.13;;
34805;SDS011;65084;42.196;25.326;2024-01-15T01:23:36;78.30;;;32.72;;
34805;SDS011;65084;42.196;25.326;2024-01-15T01:26:04;81.20;;;33.55;;
34805;SDS011;65084;42.196;25.326;2024-01-15T01:28:32;73.40;;;33.42;;
34805;SDS011;65084;42.196;25.326;2024-01-15T01:31:00;79.55;;;33.58;;
34805;SDS011;65084;42.196;25.326;2024-01-15T01:33:27;92.38;;;34.35;;
34805;SDS011;65084;42.196;25.326;2024-01-15T01:35:54;85.80;;;35.25;;
34805;SDS011;65084;42.196;25.326;2024-01-15T01:38:21;83.30;;;35.60;;
34805;SDS011;65084;42.196;25.326;2024-01-15T01:40:49;87.88;;;34.58;;
34805;SDS011;65084;42.196;25.326;2024-01-15T01:43:16;96.05;;;36.40;;
34805;SDS011;65084;42.196;25.326;2024-01-15T01:45:44;100.50;;;38.17;;
34805;SDS011;65084;42.196;25.326;2024-01-15T01:48:12;89.22;;;38.35;;
34805;SDS011;65084;42.196;25.326;2024-01-15T01:50:40;91.90;;;37.80;;
34805;SDS011;65084;42.196;25.326;2024-01-15T01:53:07;88.68;;;36.85;;
34805;SDS011;65084;42.196;25.326;2024-01-15T01:55:35;82.22;;;34.13;;
34805;SDS011;65084;42.196;25.326;2024-01-15T01:58:03;114.90;;;44.63;;
34805;SDS011;65084;42.196;25.326;2024-01-15T02:00:31;76.15;;;31.38;;
34805;SDS011;65084;42.196;25.326;2024-01-15T02:03:00;79.43;;;33.08;;
34805;SDS011;65084;42.196;25.326;2024-01-15T02:05:29;111.10;;;42.08;;
34805;SDS011;65084;42.196;25.326;2024-01-15T02:07:57;75.75;;;31.25;;
34805;SDS011;65084;42.196;25.326;2024-01-15T02:10:25;99.85;;;39.60;;
34805;SDS011;65084;42.196;25.326;2024-01-15T02:12:52;71.75;;;29.90;;
34805;SDS011;65084;42.196;25.326;2024-01-15T02:15:19;79.15;;;30.40;;
34805;SDS011;65084;42.196;25.326;2024-01-15T02:17:56;72.95;;;30.35;;
34805;SDS011;65084;42.196;25.326;2024-01-15T02:20:25;69.75;;;30.45;;
34805;SDS011;65084;42.196;25.326;2024-01-15T02:22:52;67.32;;;29.98;;
34805;SDS011;65084;42.196;25.326;2024-01-15T02:25:21;71.63;;;31.67;;
34805;SDS011;65084;42.196;25.326;2024-01-15T02:27:48;106.05;;;40.65;;
34805;SDS011;65084;42.196;25.326;2024-01-15T02:30:16;73.22;;;31.65;;
34805;SDS011;65084;42.196;25.326;2024-01-15T02:32:43;75.50;;;31.58;;
34805;SDS011;65084;42.196;25.326;2024-01-15T02:35:10;85.60;;;34.10;;
34805;SDS011;65084;42.196;25.326;2024-01-15T02:37:38;51.42;;;22.85;;
34805;SDS011;65084;42.196;25.326;2024-01-15T02:40:06;66.00;;;25.52;;
34805;SDS011;65084;42.196;25.326;2024-01-15T02:42:34;42.38;;;19.02;;
34805;SDS011;65084;42.196;25.326;2024-01-15T02:45:02;57.03;;;24.50;;
34805;SDS011;65084;42.196;25.326;2024-01-15T02:47:29;44.22;;;19.95;;
34805;SDS011;65084;42.196;25.326;2024-01-15T02:49:56;69.53;;;28.52;;
34805;SDS011;65084;42.196;25.326;2024-01-15T02:52:23;69.50;;;27.83;;
34805;SDS011;65084;42.196;25.326;2024-01-15T02:54:51;73.93;;;29.90;;
34805;SDS011;65084;42.196;25.326;2024-01-15T02:57:18;73.40;;;28.63;;
34805;SDS011;65084;42.196;25.326;2024-01-15T02:59:47;51.90;;;21.67;;
34805;SDS011;65084;42.196;25.326;2024-01-15T03:02:14;70.70;;;30.02;;
34805;SDS011;65084;42.196;25.326;2024-01-15T03:04:42;51.58;;;24.05;;
34805;SDS011;65084;42.196;25.326;2024-01-15T03:07:10;74.88;;;31.65;;
34805;SDS011;65084;42.196;25.326;2024-01-15T03:09:37;72.55;;;30.23;;
34805;SDS011;65084;42.196;25.326;2024-01-15T03:12:04;81.07;;;31.65;;
34805;SDS011;65084;42.196;25.326;2024-01-15T03:14:32;68.50;;;30.33;;
34805;SDS011;65084;42.196;25.326;2024-01-15T03:17:00;55.33;;;24.80;;
34805;SDS011;65084;42.196;25.326;2024-01-15T03:19:28;86.00;;;34.60;;
34805;SDS011;65084;42.196;25.326;2024-01-15T03:21:55;68.15;;;28.25;;
34805;SDS011;65084;42.196;25.326;2024-01-15T03:24:23;91.30;;;34.28;;
34805;SDS011;65084;42.196;25.326;2024-01-15T03:26:50;83.93;;;32.45;;
34805;SDS011;65084;42.196;25.326;2024-01-15T03:29:17;96.00;;;36.75;;
34805;SDS011;65084;42.196;25.326;2024-01-15T03:31:44;97.88;;;36.80;;
34805;SDS011;65084;42.196;25.326;2024-01-15T03:34:13;67.50;;;27.20;;
34805;SDS011;65084;42.196;25.326;2024-01-15T03:36:40;91.38;;;34.38;;
34805;SDS011;65084;42.196;25.326;2024-01-15T03:39:08;57.72;;;24.08;;
34805;SDS011;65084;42.196;25.326;2024-01-15T03:41:35;76.57;;;33.03;;
34805;SDS011;65084;42.196;25.326;2024-01-15T03:44:02;88.60;;;33.67;;
34805;SDS011;65084;42.196;25.326;2024-01-15T03:46:30;78.65;;;33.63;;
34805;SDS011;65084;42.196;25.326;2024-01-15T03:48:57;59.58;;;26.13;;
34805;SDS011;65084;42.196;25.326;2024-01-15T03:51:25;50.08;;;24.48;;
34805;SDS011;65084;42.196;25.326;2024-01-15T03:53:53;77.53;;;32.47;;
34805;SDS011;65084;42.196;25.326;2024-01-15T03:56:20;55.22;;;24.92;;
34805;SDS011;65084;42.196;25.326;2024-01-15T03:58:47;85.50;;;31.33;;
34805;SDS011;65084;42.196;25.326;2024-01-15T04:01:15;80.85;;;32.08;;
34805;SDS011;65084;42.196;25.326;2024-01-15T04:03:42;51.63;;;23.63;;
34805;SDS011;65084;42.196;25.326;2024-01-15T04:06:09;83.43;;;32.55;;
34805;SDS011;65084;42.196;25.326;2024-01-15T04:08:38;76.60;;;31.20;;
34805;SDS011;65084;42.196;25.326;2024-01-15T04:11:05;55.35;;;23.60;;
34805;SDS011;65084;42.196;25.326;2024-01-15T04:13:32;68.95;;;29.45;;
34805;SDS011;65084;42.196;25.326;2024-01-15T04:16:00;54.45;;;23.58;;
34805;SDS011;65084;42.196;25.326;2024-01-15T04:18:28;79.63;;;30.35;;
34805;SDS011;65084;42.196;25.326;2024-01-15T04:20:55;68.28;;;30.13;;
34805;SDS011;65084;42.196;25.326;2024-01-15T04:23:23;83.45;;;31.10;;
34805;SDS011;65084;42.196;25.326;2024-01-15T04:25:51;80.10;;;35.53;;
34805;SDS011;65084;42.196;25.326;2024-01-15T04:28:19;65.50;;;27.23;;
34805;SDS011;65084;42.196;25.326;2024-01-15T04:30:46;82.43;;;31.70;;
34805;SDS011;65084;42.196;25.326;2024-01-15T04:33:13;64.35;;;27.17;;
34805;SDS011;65084;42.196;25.326;2024-01-15T04:35:40;81.13;;;33.60;;
34805;SDS011;65084;42.196;25.326;2024-01-15T04:38:08;87.60;;;34.22;;
34805;SDS011;65084;42.196;25.326;2024-01-15T04:40:35;80.95;;;32.28;;
34805;SDS011;65084;42.196;25.326;2024-01-15T04:43:04;82.78;;;31.52;;
34805;SDS011;65084;42.196;25.326;2024-01-15T04:45:31;88.30;;;32.08;;
34805;SDS011;65084;42.196;25.326;2024-01-15T04:47:58;75.55;;;31.17;;
34805;SDS011;65084;42.196;25.326;2024-01-15T04:50:26;71.20;;;29.42;;
34805;SDS011;65084;42.196;25.326;2024-01-15T04:52:53;77.38;;;31.90;;
34805;SDS011;65084;42.196;25.326;2024-01-15T04:55:20;56.22;;;23.35;;
34805;SDS011;65084;42.196;25.326;2024-01-15T04:57:48;66.60;;;28.92;;
34805;SDS011;65084;42.196;25.326;2024-01-15T05:00:17;71.47;;;28.65;;
34805;SDS011;65084;42.196;25.326;2024-01-15T05:02:44;73.00;;;28.70;;
34805;SDS011;65084;42.196;25.326;2024-01-15T05:05:12;46.88;;;21.77;;
34805;SDS011;65084;42.196;25.326;2024-01-15T05:07:39;71.57;;;29.30;;
34805;SDS011;65084;42.196;25.326;2024-01-15T05:10:07;50.22;;;22.20;;
34805;SDS011;65084;42.196;25.326;2024-01-15T05:12:34;79.43;;;34.15;;
34805;SDS011;65084;42.196;25.326;2024-01-15T05:15:02;92.47;;;35.92;;
34805;SDS011;65084;42.196;25.326;2024-01-15T05:17:30;94.68;;;36.22;;
34805;SDS011;65084;42.196;25.326;2024-01-15T05:19:58;89.32;;;36.92;;
34805;SDS011;65084;42.196;25.326;2024-01-15T05:22:25;97.28;;;37.10;;
34805;SDS011;65084;42.196;25.326;2024-01-15T05:24:52;95.38;;;36.55;;
34805;SDS011;65084;42.196;25.326;2024-01-15T05:27:19;91.55;;;35.67;;
34805;SDS011;65084;42.196;25.326;2024-01-15T05:29:47;55.28;;;26.25;;
34805;SDS011;65084;42.196;25.326;2024-01-15T05:32:14;91.82;;;36.50;;
34805;SDS011;65084;42.196;25.326;2024-01-15T05:34:43;71.88;;;29.48;;
34805;SDS011;65084;42.196;25.326;2024-01-15T05:37:10;95.43;;;38.03;;
34805;SDS011;65084;42.196;25.326;2024-01-15T05:39:37;121.90;;;43.67;;
34805;SDS011;65084;42.196;25.326;2024-01-15T05:42:05;114.55;;;45.10;;
34805;SDS011;65084;42.196;25.326;2024-01-15T05:44:32;114.07;;;48.28;;
34805;SDS011;65084;42.196;25.326;2024-01-15T05:46:59;135.90;;;55.60;;
34805;SDS011;65084;42.196;25.326;2024-01-15T05:49:27;126.72;;;53.38;;
34805;SDS011;65084;42.196;25.326;2024-01-15T05:51:56;120.70;;;46.72;;
34805;SDS011;65084;42.196;25.326;2024-01-15T05:54:23;113.07;;;42.33;;
34805;SDS011;65084;42.196;25.326;2024-01-15T05:56:50;99.13;;;39.00;;
34805;SDS011;65084;42.196;25.326;2024-01-15T05:59:17;90.95;;;35.63;;
34805;SDS011;65084;42.196;25.326;2024-01-15T06:01:45;104.78;;;39.60;;
34805;SDS011;65084;42.196;25.326;2024-01-15T06:04:12;101.97;;;41.53;;
34805;SDS011;65084;42.196;25.326;2024-01-15T06:06:39;118.93;;;45.30;;
34805;SDS011;65084;42.196;25.326;2024-01-15T06:09:08;98.68;;;39.67;;
34805;SDS011;65084;42.196;25.326;2024-01-15T06:11:35;93.18;;;38.50;;
34805;SDS011;65084;42.196;25.326;2024-01-15T06:14:02;96.05;;;34.38;;
34805;SDS011;65084;42.196;25.326;2024-01-15T06:16:30;99.82;;;35.55;;
34805;SDS011;65084;42.196;25.326;2024-01-15T06:18:57;97.47;;;35.10;;
34805;SDS011;65084;42.196;25.326;2024-01-15T06:21:25;92.95;;;31.60;;
34805;SDS011;65084;42.196;25.326;2024-01-15T06:23:52;79.78;;;27.80;;
34805;SDS011;65084;42.196;25.326;2024-01-15T06:26:22;75.93;;;27.10;;
34805;SDS011;65084;42.196;25.326;2024-01-15T06:28:50;61.10;;;24.75;;
34805;SDS011;65084;42.196;25.326;2024-01-15T06:31:17;48.92;;;21.90;;
34805;SDS011;65084;42.196;25.326;2024-01-15T06:33:44;50.28;;;19.90;;
34805;SDS011;65084;42.196;25.326;2024-01-15T06:36:13;49.15;;;19.77;;
34805;SDS011;65084;42.196;25.326;2024-01-15T06:38:41;56.55;;;22.52;;
34805;SDS011;65084;42.196;25.326;2024-01-15T06:41:08;62.53;;;23.13;;
34805;SDS011;65084;42.196;25.326;2024-01-15T06:43:37;57.78;;;23.17;;
34805;SDS011;65084;42.196;25.326;2024-01-15T06:46:04;62.55;;;28.75;;
34805;SDS011;65084;42.196;25.326;2024-01-15T06:48:31;36.67;;;18.88;;
34805;SDS011;65084;42.196;25.326;2024-01-15T06:50:59;56.20;;;24.27;;
34805;SDS011;65084;42.196;25.326;2024-01-15T06:53:26;54.58;;;24.45;;
34805;SDS011;65084;42.196;25.326;2024-01-15T06:55:53;36.67;;;18.45;;
34805;SDS011;65084;42.196;25.326;2024-01-15T06:58:20;63.28;;;27.65;;
34805;SDS011;65084;42.196;25.326;2024-01-15T07:00:49;53.67;;;24.23;;
34805;SDS011;65084;42.196;25.326;2024-01-15T07:03:16;41.47;;;18.25;;
34805;SDS011;65084;42.196;25.326;2024-01-15T07:05:44;60.50;;;24.55;;
34805;SDS011;65084;42.196;25.326;2024-01-15T07:08:11;39.75;;;18.20;;
34805;SDS011;65084;42.196;25.326;2024-01-15T07:10:38;52.50;;;22.75;;
34805;SDS011;65084;42.196;25.326;2024-01-15T07:13:06;54.63;;;25.52;;
34805;SDS011;65084;42.196;25.326;2024-01-15T07:15:33;53.78;;;24.10;;
34805;SDS011;65084;42.196;25.326;2024-01-15T07:18:02;51.10;;;21.52;;
34805;SDS011;65084;42.196;25.326;2024-01-15T07:20:29;43.75;;;20.23;;
34805;SDS011;65084;42.196;25.326;2024-01-15T07:22:56;40.85;;;19.02;;
34805;SDS011;65084;42.196;25.326;2024-01-15T07:25:23;40.47;;;17.38;;
34805;SDS011;65084;42.196;25.326;2024-01-15T07:27:51;38.85;;;18.42;;
34805;SDS011;65084;42.196;25.326;2024-01-15T07:30:19;34.80;;;17.25;;
34805;SDS011;65084;42.196;25.326;2024-01-15T07:32:47;39.17;;;17.63;;
34805;SDS011;65084;42.196;25.326;2024-01-15T07:35:16;37.95;;;17.65;;
34805;SDS011;65084;42.196;25.326;2024-01-15T07:37:43;39.60;;;17.75;;
34805;SDS011;65084;42.196;25.326;2024-01-15T07:40:11;38.90;;;19.23;;
34805;SDS011;65084;42.196;25.326;2024-01-15T07:42:38;44.53;;;18.83;;
34805;SDS011;65084;42.196;25.326;2024-01-15T07:45:07;39.65;;;18.98;;
34805;SDS011;65084;42.196;25.326;2024-01-15T07:47:35;46.78;;;22.77;;
34805;SDS011;65084;42.196;25.326;2024-01-15T07:50:02;51.22;;;24.55;;
34805;SDS011;65084;42.196;25.326;2024-01-15T07:52:31;53.03;;;23.98;;
34805;SDS011;65084;42.196;25.326;2024-01-15T07:54:58;56.58;;;25.60;;
34805;SDS011;65084;42.196;25.326;2024-01-15T07:57:26;69.15;;;29.33;;
34805;SDS011;65084;42.196;25.326;2024-01-15T07:59:53;62.97;;;30.90;;
34805;SDS011;65084;42.196;25.326;2024-01-15T08:02:20;77.78;;;34.83;;
34805;SDS011;65084;42.196;25.326;2024-01-15T08:04:48;111.45;;;47.25;;
34805;SDS011;65084;42.196;25.326;2024-01-15T08:07:15;97.43;;;43.63;;
34805;SDS011;65084;42.196;25.326;2024-01-15T08:09:44;87.32;;;38.67;;
34805;SDS011;65084;42.196;25.326;2024-01-15T08:12:13;82.50;;;36.70;;
34805;SDS011;65084;42.196;25.326;2024-01-15T08:14:40;86.93;;;35.63;;
34805;SDS011;65084;42.196;25.326;2024-01-15T08:17:07;89.53;;;39.50;;
34805;SDS011;65084;42.196;25.326;2024-01-15T08:19:34;83.72;;;39.22;;
34805;SDS011;65084;42.196;25.326;2024-01-15T08:22:02;90.18;;;41.55;;
34805;SDS011;65084;42.196;25.326;2024-01-15T08:24:29;70.38;;;33.92;;
34805;SDS011;65084;42.196;25.326;2024-01-15T08:26:58;77.63;;;34.35;;
34805;SDS011;65084;42.196;25.326;2024-01-15T08:29:25;76.32;;;35.47;;
34805;SDS011;65084;42.196;25.326;2024-01-15T08:31:52;70.10;;;31.30;;
34805;SDS011;65084;42.196;25.326;2024-01-15T08:34:20;51.75;;;27.80;;
34805;SDS011;65084;42.196;25.326;2024-01-15T08:36:47;54.60;;;26.55;;
34805;SDS011;65084;42.196;25.326;2024-01-15T08:39:14;50.50;;;22.42;;
34805;SDS011;65084;42.196;25.326;2024-01-15T08:41:42;41.33;;;19.52;;
34805;SDS011;65084;42.196;25.326;2024-01-15T08:44:10;48.03;;;22.23;;
34805;SDS011;65084;42.196;25.326;2024-01-15T08:46:38;40.55;;;19.90;;
34805;SDS011;65084;42.196;25.326;2024-01-15T08:49:05;45.90;;;22.95;;
34805;SDS011;65084;42.196;25.326;2024-01-15T08:51:32;36.83;;;18.90;;
34805;SDS011;65084;42.196;25.326;2024-01-15T08:53:59;44.63;;;24.35;;
34805;SDS011;65084;42.196;25.326;2024-01-15T08:56:27;49.10;;;22.77;;
34805;SDS011;65084;42.196;25.326;2024-01-15T08:58:54;35.85;;;17.65;;
34805;SDS011;65084;42.196;25.326;2024-01-15T09:01:23;35.53;;;19.40;;
34805;SDS011;65084;42.196;25.326;2024-01-15T09:03:50;35.67;;;18.25;;
34805;SDS011;65084;42.196;25.326;2024-01-15T09:06:18;29.95;;;17.00;;
34805;SDS011;65084;42.196;25.326;2024-01-15T09:08:45;28.52;;;15.93;;
34805;SDS011;65084;42.196;25.326;2024-01-15T09:11:13;31.55;;;17.30;;
34805;SDS011;65084;42.196;25.326;2024-01-15T09:13:40;33.67;;;19.90;;
34805;SDS011;65084;42.196;25.326;2024-01-15T09:16:07;34.28;;;18.33;;
34805;SDS011;65084;42.196;25.326;2024-01-15T09:18:36;38.63;;;19.73;;
34805;SDS011;65084;42.196;25.326;2024-01-15T09:21:03;37.90;;;19.23;;
34805;SDS011;65084;42.196;25.326;2024-01-15T09:23:31;41.17;;;20.60;;
34805;SDS011;65084;42.196;25.326;2024-01-15T09:25:58;51.53;;;26.10;;
34805;SDS011;65084;42.196;25.326;2024-01-15T09:28:25;35.15;;;19.63;;
34805;SDS011;65084;42.196;25.326;2024-01-15T09:30:53;43.85;;;19.35;;
34805;SDS011;65084;42.196;25.326;2024-01-15T09:33:20;39.53;;;19.23;;
34805;SDS011;65084;42.196;25.326;2024-01-15T09:35:49;38.08;;;18.73;;
34805;SDS011;65084;42.196;25.326;2024-01-15T09:38:16;41.25;;;23.05;;
34805;SDS011;65084;42.196;25.326;2024-01-15T09:40:45;39.45;;;19.88;;
34805;SDS011;65084;42.196;25.326;2024-01-15T09:43:13;43.90;;;21.60;;
34805;SDS011;65084;42.196;25.326;2024-01-15T09:45:42;44.33;;;22.20;;
34805;SDS011;65084;42.196;25.326;2024-01-15T09:48:09;45.88;;;26.40;;
34805;SDS011;65084;42.196;25.326;2024-01-15T09:50:37;57.58;;;25.20;;
34805;SDS011;65084;42.196;25.326;2024-01-15T09:53:06;53.15;;;25.20;;
34805;SDS011;65084;42.196;25.326;2024-01-15T09:55:33;49.03;;;24.20;;
34805;SDS011;65084;42.196;25.326;2024-01-15T09:58:01;51.00;;;25.10;;
34805;SDS011;65084;42.196;25.326;2024-01-15T10:00:29;55.55;;;27.75;;
34805;SDS011;65084;42.196;25.326;2024-01-15T10:02:57;64.38;;;34.17;;
34805;SDS011;65084;42.196;25.326;2024-01-15T10:05:25;45.17;;;25.23;;
34805;SDS011;65084;42.196;25.326;2024-01-15T10:07:53;47.78;;;23.55;;
34805;SDS011;65084;42.196;25.326;2024-01-15T10:10:23;53.95;;;25.63;;
34805;SDS011;65084;42.196;25.326;2024-01-15T10:12:50;58.17;;;28.45;;
34805;SDS011;65084;42.196;25.326;2024-01-15T10:15:17;47.40;;;25.73;;
34805;SDS011;65084;42.196;25.326;2024-01-15T10:17:44;51.78;;;25.17;;
34805;SDS011;65084;42.196;25.326;2024-01-15T10:20:12;56.60;;;28.83;;
34805;SDS011;65084;42.196;25.326;2024-01-15T10:22:40;54.15;;;27.02;;
34805;SDS011;65084;42.196;25.326;2024-01-15T10:25:10;44.28;;;25.27;;
34805;SDS011;65084;42.196;25.326;2024-01-15T10:27:38;50.60;;;28.30;;
34805;SDS011;65084;42.196;25.326;2024-01-15T10:30:07;39.90;;;22.52;;
34805;SDS011;65084;42.196;25.326;2024-01-15T10:32:34;45.15;;;25.48;;
34805;SDS011;65084;42.196;25.326;2024-01-15T10:35:01;49.28;;;26.20;;
34805;SDS011;65084;42.196;25.326;2024-01-15T10:37:29;50.00;;;25.40;;
34805;SDS011;65084;42.196;25.326;2024-01-15T10:40:00;42.63;;;24.13;;
34805;SDS011;65084;42.196;25.326;2024-01-15T10:42:30;53.20;;;24.60;;
34805;SDS011;65084;42.196;25.326;2024-01-15T10:44:58;42.85;;;23.17;;
34805;SDS011;65084;42.196;25.326;2024-01-15T10:47:26;44.90;;;24.75;;
34805;SDS011;65084;42.196;25.326;2024-01-15T10:49:53;49.60;;;23.80;;
34805;SDS011;65084;42.196;25.326;2024-01-15T10:52:21;62.75;;;29.83;;
34805;SDS011;65084;42.196;25.326;2024-01-15T10:54:48;121.03;;;44.38;;
34805;SDS011;65084;42.196;25.326;2024-01-15T10:57:16;96.28;;;41.50;;
34805;SDS011;65084;42.196;25.326;2024-01-15T10:59:44;85.88;;;38.20;;
34805;SDS011;65084;42.196;25.326;2024-01-15T11:02:13;66.38;;;33.90;;
34805;SDS011;65084;42.196;25.326;2024-01-15T11:04:41;48.75;;;25.20;;
34805;SDS011;65084;42.196;25.326;2024-01-15T11:07:08;49.50;;;26.83;;
34805;SDS011;65084;42.196;25.326;2024-01-15T11:09:36;48.45;;;23.95;;
34805;SDS011;65084;42.196;25.326;2024-01-15T11:12:07;39.80;;;21.73;;
34805;SDS011;65084;42.196;25.326;2024-01-15T11:14:35;45.05;;;22.88;;
34805;SDS011;65084;42.196;25.326;2024-01-15T11:17:02;37.30;;;21.52;;
34805;SDS011;65084;42.196;25.326;2024-01-15T11:19:38;38.83;;;23.35;;
34805;SDS011;65084;42.196;25.326;2024-01-15T11:22:07;39.45;;;20.70;;
34805;SDS011;65084;42.196;25.326;2024-01-15T11:24:38;45.38;;;23.25;;
34805;SDS011;65084;42.196;25.326;2024-01-15T11:27:05;42.80;;;22.65;;
34805;SDS011;65084;42.196;25.326;2024-01-15T11:29:33;42.42;;;21.75;;
34805;SDS011;65084;42.196;25.326;2024-01-15T11:32:01;48.05;;;23.15;;
34805;SDS011;65084;42.196;25.326;2024-01-15T11:37:17;32.30;;;19.63;;
34805;SDS011;65084;42.196;25.326;2024-01-15T11:39:44;37.55;;;21.30;;
34805;SDS011;65084;42.196;25.326;2024-01-15T11:42:12;41.25;;;22.33;;
34805;SDS011;65084;42.196;25.326;2024-01-15T11:44:40;39.97;;;20.60;;
34805;SDS011;65084;42.196;25.326;2024-01-15T11:47:08;41.00;;;22.13;;
34805;SDS011;65084;42.196;25.326;2024-01-15T11:49:58;76.95;;;38.50;;
34805;SDS011;65084;42.196;25.326;2024-01-15T11:52:29;43.92;;;24.35;;
34805;SDS011;65084;42.196;25.326;2024-01-15T11:55:00;41.08;;;22.40;;
34805;SDS011;65084;42.196;25.326;2024-01-15T11:57:31;49.45;;;23.98;;
34805;SDS011;65084;42.196;25.326;2024-01-15T12:00:00;55.53;;;25.10;;
34805;SDS011;65084;42.196;25.326;2024-01-15T12:02:28;53.13;;;26.42;;
34805;SDS011;65084;42.196;25.326;2024-01-15T12:04:56;39.45;;;21.25;;
34805;SDS011;65084;42.196;25.326;2024-01-15T12:07:23;48.75;;;24.88;;
34805;SDS011;65084;42.196;25.326;2024-01-15T12:09:52;42.05;;;24.75;;
34805;SDS011;65084;42.196;25.326;2024-01-15T12:12:21;46.92;;;24.85;;
34805;SDS011;65084;42.196;25.326;2024-01-15T12:14:51;44.72;;;23.50;;
34805;SDS011;65084;42.196;25.326;2024-01-15T12:17:18;35.88;;;21.23;;
34805;SDS011;65084;42.196;25.326;2024-01-15T12:19:46;40.03;;;21.40;;
34805;SDS011;65084;42.196;25.326;2024-01-15T12:22:13;37.17;;;21.77;;
34805;SDS011;65084;42.196;25.326;2024-01-15T12:24:40;41.25;;;22.58;;
34805;SDS011;65084;42.196;25.326;2024-01-15T12:27:09;43.05;;;23.52;;
34805;SDS011;65084;42.196;25.326;2024-01-15T12:29:37;44.88;;;26.13;;
34805;SDS011;65084;42.196;25.326;2024-01-15T12:32:05;50.95;;;26.38;;
34805;SDS011;65084;42.196;25.326;2024-01-15T12:34:33;58.13;;;28.80;;
34805;SDS011;65084;42.196;25.326;2024-01-15T12:37:00;52.33;;;29.27;;
34805;SDS011;65084;42.196;25.326;2024-01-15T12:39:27;49.22;;;26.85;;
34805;SDS011;65084;42.196;25.326;2024-01-15T12:41:55;53.42;;;28.38;;
34805;SDS011;65084;42.196;25.326;2024-01-15T12:44:23;65.50;;;29.35;;
34805;SDS011;65084;42.196;25.326;2024-01-15T12:46:51;50.72;;;25.67;;
34805;SDS011;65084;42.196;25.326;2024-01-15T12:49:18;43.03;;;23.42;;
34805;SDS011;65084;42.196;25.326;2024-01-15T12:51:51;39.13;;;22.52;;
34805;SDS011;65084;42.196;25.326;2024-01-15T12:54:19;44.40;;;24.15;;
34805;SDS011;65084;42.196;25.326;2024-01-15T12:56:46;38.75;;;22.27;;
34805;SDS011;65084;42.196;25.326;2024-01-15T12:59:13;50.05;;;25.23;;
34805;SDS011;65084;42.196;25.326;2024-01-15T13:01:42;45.80;;;25.83;;
34805;SDS011;65084;42.196;25.326;2024-01-15T13:04:09;49.60;;;24.88;;
34805;SDS011;65084;42.196;25.326;2024-01-15T13:06:37;52.83;;;25.90;;
34805;SDS011;65084;42.196;25.326;2024-01-15T13:09:04;43.35;;;24.95;;
34805;SDS011;65084;42.196;25.326;2024-01-15T13:11:31;49.90;;;26.65;;
34805;SDS011;65084;42.196;25.326;2024-01-15T13:13:59;52.13;;;23.60;;
34805;SDS011;65084;42.196;25.326;2024-01-15T13:16:26;46.40;;;25.27;;
34805;SDS011;65084;42.196;25.326;2024-01-15T13:18:55;47.17;;;25.25;;
34805;SDS011;65084;42.196;25.326;2024-01-15T13:21:23;45.40;;;24.52;;
34805;SDS011;65084;42.196;25.326;2024-01-15T13:23:51;56.40;;;26.02;;
34805;SDS011;65084;42.196;25.326;2024-01-15T13:26:19;45.20;;;23.17;;
34805;SDS011;65084;42.196;25.326;2024-01-15T13:28:46;42.67;;;22.52;;
34805;SDS011;65084;42.196;25.326;2024-01-15T13:31:14;46.08;;;23.58;;
34805;SDS011;65084;42.196;25.326;2024-01-15T13:33:41;47.58;;;21.10;;
34805;SDS011;65084;42.196;25.326;2024-01-15T13:36:10;47.00;;;23.60;;
34805;SDS011;65084;42.196;25.326;2024-01-15T13:38:37;41.80;;;24.70;;
34805;SDS011;65084;42.196;25.326;2024-01-15T13:41:04;47.75;;;24.83;;
34805;SDS011;65084;42.196;25.326;2024-01-15T13:43:31;56.55;;;28.60;;
34805;SDS011;65084;42.196;25.326;2024-01-15T13:45:59;50.03;;;24.73;;
34805;SDS011;65084;42.196;25.326;2024-01-15T13:48:29;52.72;;;24.50;;
34805;SDS011;65084;42.196;25.326;2024-01-15T13:50:57;42.35;;;22.77;;
34805;SDS011;65084;42.196;25.326;2024-01-15T13:53:26;46.15;;;23.90;;
34805;SDS011;65084;42.196;25.326;2024-01-15T13:55:54;46.05;;;21.77;;
34805;SDS011;65084;42.196;25.326;2024-01-15T13:58:22;40.90;;;22.13;;
34805;SDS011;65084;42.196;25.326;2024-01-15T14:00:50;40.35;;;23.20;;
34805;SDS011;65084;42.196;25.326;2024-01-15T14:03:17;48.42;;;24.17;;
34805;SDS011;65084;42.196;25.326;2024-01-15T14:05:45;51.72;;;25.48;;
34805;SDS011;65084;42.196;25.326;2024-01-15T14:08:12;75.65;;;35.00;;
34805;SDS011;65084;42.196;25.326;2024-01-15T14:10:41;59.25;;;32.95;;
34805;SDS011;65084;42.196;25.326;2024-01-15T14:13:08;68.70;;;38.22;;